Time;durP1;ratioP1;P1;durP2;ratioP2;P2;SDS_P1;SDS_P2;PMS_P1;PMS_P2;Temp;Humidity;BMP_temperature;BMP_pressure;BME280_temperature;BME280_humidity;BME280_pressure;Samples;Min_cycle;Max_cycle;Signal;HPM_P1;HPM_P2
2022/12/03 00:02:08;;;;;;;29.92;14.63;;;6.40;99.90;;;;;;5139179;27;20035;-69
2022/12/03 00:04:34;;;;;;;33.63;15.38;;;6.50;99.90;;;;;;5139047;27;20039;-69
2022/12/03 00:07:00;;;;;;;30.17;14.98;;;6.50;99.90;;;;;;5121024;27;20039;-69
2022/12/03 00:09:25;;;;;;;31.08;13.80;;;6.60;99.90;;;;;;5139080;27;20043;-69
2022/12/03 00:11:51;;;;;;;30.48;14.15;;;6.60;99.90;;;;;;5139050;27;20387;-69
2022/12/03 00:14:17;;;;;;;31.17;14.68;;;6.50;99.90;;;;;;5138014;27;20121;-69
2022/12/03 00:16:42;;;;;;;34.60;15.00;;;6.50;99.90;;;;;;5138060;27;20071;-69
2022/12/03 00:19:08;;;;;;;27.33;14.43;;;6.30;99.90;;;;;;5137753;27;20070;-69
2022/12/03 00:21:34;;;;;;;26.27;13.05;;;6.30;99.90;;;;;;5137506;27;20066;-69
2022/12/03 00:23:59;;;;;;;22.00;12.13;;;6.20;99.90;;;;;;5138576;27;20539;-69
2022/12/03 00:26:25;;;;;;;26.33;13.23;;;6.00;99.90;;;;;;5138517;27;20042;-69
2022/12/03 00:28:51;;;;;;;27.65;13.43;;;6.00;99.90;;;;;;5138336;27;20077;-69
2022/12/03 00:31:17;;;;;;;27.13;13.48;;;6.00;99.90;;;;;;5138593;27;20038;-71
2022/12/03 00:33:42;;;;;;;27.80;12.85;;;6.00;99.90;;;;;;5137574;27;20042;-69
2022/12/03 00:36:08;;;;;;;25.02;12.15;;;6.00;99.90;;;;;;5138375;27;20423;-69
2022/12/03 00:38:34;;;;;;;23.98;11.95;;;5.90;99.90;;;;;;5138346;27;20123;-68
2022/12/03 00:40:59;;;;;;;26.75;12.82;;;5.90;99.90;;;;;;5136935;27;20143;-68
2022/12/03 00:43:25;;;;;;;24.70;12.10;;;5.90;99.90;;;;;;5138501;27;20054;-69
2022/12/03 00:45:51;;;;;;;23.63;12.13;;;5.90;99.90;;;;;;5138283;27;20047;-69
2022/12/03 00:48:16;;;;;;;27.83;13.48;;;5.80;99.90;;;;;;5138107;27;20035;-68
2022/12/03 00:50:42;;;;;;;26.00;13.55;;;5.90;99.90;;;;;;5137933;27;20074;-68
2022/12/03 00:53:08;;;;;;;29.52;13.85;;;5.90;99.90;;;;;;5136876;27;20031;-68
2022/12/03 00:55:33;;;;;;;28.77;14.02;;;5.80;99.90;;;;;;5138006;27;20063;-68
2022/12/03 00:57:59;;;;;;;24.33;12.52;;;5.70;99.90;;;;;;5136740;27;20089;-69
2022/12/03 01:00:24;;;;;;;23.58;12.30;;;5.70;99.90;;;;;;5138190;27;20035;-68
2022/12/03 01:02:51;;;;;;;26.38;12.95;;;5.80;99.90;;;;;;5138011;27;20031;-68
2022/12/03 01:05:18;;;;;;;24.50;12.75;;;5.80;99.90;;;;;;5138152;27;20046;-68
2022/12/03 01:07:44;;;;;;;25.48;12.65;;;5.90;99.90;;;;;;5137760;27;20415;-68
2022/12/03 01:10:11;;;;;;;25.25;13.20;;;5.70;99.90;;;;;;5137393;27;20050;-69
2022/12/03 01:12:36;;;;;;;23.92;11.95;;;5.80;99.90;;;;;;5137725;27;20439;-69
2022/12/03 01:15:03;;;;;;;24.60;12.82;;;5.80;99.90;;;;;;5137958;27;20071;-69
2022/12/03 01:17:29;;;;;;;27.45;13.15;;;5.70;99.90;;;;;;5137782;27;20042;-69
2022/12/03 01:19:55;;;;;;;30.75;13.18;;;5.80;99.90;;;;;;5137745;27;20035;-69
2022/12/03 01:22:20;;;;;;;27.20;13.95;;;5.90;99.90;;;;;;5137301;27;20143;-68
2022/12/03 01:24:46;;;;;;;25.83;13.00;;;5.80;99.90;;;;;;5119585;27;20047;-68
2022/12/03 01:27:12;;;;;;;25.98;13.20;;;5.70;99.90;;;;;;5137731;27;20074;-69
2022/12/03 01:29:37;;;;;;;27.75;13.70;;;5.70;99.90;;;;;;5137559;27;20070;-69
2022/12/03 01:32:15;;;;;;;28.08;13.77;;;5.70;99.90;;;;;;5137774;27;20361;-69
2022/12/03 01:34:42;;;;;;;27.63;13.15;;;5.80;99.90;;;;;;5136555;28;20430;-68
2022/12/03 01:37:08;;;;;;;30.27;14.27;;;5.80;99.90;;;;;;5137576;28;20043;-68
2022/12/03 01:39:33;;;;;;;29.90;14.07;;;5.80;99.90;;;;;;5137425;28;20057;-69
2022/12/03 01:41:59;;;;;;;28.95;13.98;;;5.70;99.90;;;;;;5137192;27;20052;-68
2022/12/03 01:44:28;;;;;;;29.75;14.27;;;5.80;99.90;;;;;;5137677;28;20114;-68
2022/12/03 01:46:57;;;;;;;33.70;12.82;;;5.70;99.90;;;;;;5137398;27;20050;-69
2022/12/03 01:49:45;;;;;;;30.63;14.35;;;5.70;99.90;;;;;;5137399;28;20027;-68
2022/12/03 01:52:18;;;;;;;30.77;13.50;;;5.70;99.90;;;;;;5136355;28;20059;-69
2022/12/03 01:54:50;;;;;;;26.98;14.55;;;5.70;99.90;;;;;;5137172;28;20073;-69
2022/12/03 01:57:30;;;;;;;31.63;15.68;;;5.80;99.90;;;;;;5137525;28;20047;-69
2022/12/03 01:59:57;;;;;;;30.55;14.23;;;5.70;99.90;;;;;;5136347;28;20041;-68
2022/12/03 02:02:30;;;;;;;29.60;13.65;;;5.70;99.90;;;;;;5136066;28;20031;-69
2022/12/03 02:04:57;;;;;;;28.70;14.13;;;5.70;99.90;;;;;;5137390;28;20035;-69
2022/12/03 02:07:27;;;;;;;29.73;13.63;;;5.60;99.90;;;;;;5137289;28;20042;-69
2022/12/03 02:09:54;;;;;;;33.88;15.18;;;5.60;99.90;;;;;;5136167;28;20035;-69
2022/12/03 02:12:42;;;;;;;32.55;15.23;;;5.60;99.90;;;;;;5137142;28;20434;-69
2022/12/03 02:15:09;;;;;;;28.95;13.98;;;5.80;99.90;;;;;;5137245;27;20074;-69
2022/12/03 02:17:35;;;;;;;34.50;15.80;;;5.80;99.90;;;;;;5137253;28;20027;-69
2022/12/03 02:20:03;;;;;;;31.92;15.00;;;5.90;99.90;;;;;;5137338;27;20038;-69
2022/12/03 02:22:41;;;;;;;32.65;15.80;;;5.80;99.90;;;;;;5139790;27;20035;-69
2022/12/03 02:25:19;;;;;;;31.35;14.63;;;5.80;99.90;;;;;;5140901;27;20083;-69
2022/12/03 02:27:47;;;;;;;33.03;15.40;;;5.80;99.90;;;;;;5141268;27;20377;-69
2022/12/03 02:30:17;;;;;;;32.42;14.50;;;5.80;99.90;;;;;;5140630;27;20415;-68
2022/12/03 02:32:43;;;;;;;32.78;14.40;;;5.90;99.90;;;;;;5141060;27;20046;-68
2022/12/03 02:35:20;;;;;;;32.28;15.27;;;5.90;99.90;;;;;;5140689;27;20419;-68
2022/12/03 02:37:49;;;;;;;31.13;15.25;;;5.90;99.90;;;;;;5140923;27;20323;-72
2022/12/03 02:40:19;;;;;;;27.73;13.77;;;5.90;99.90;;;;;;5140651;27;20428;-69
2022/12/03 02:42:45;;;;;;;30.35;15.00;;;5.90;99.90;;;;;;5140205;27;20066;-68
2022/12/03 02:45:16;;;;;;;33.60;15.02;;;6.00;99.90;;;;;;5139549;27;20207;-69
2022/12/03 02:47:45;;;;;;;30.40;15.13;;;5.80;99.90;;;;;;5140494;27;20042;-69
2022/12/03 02:50:14;;;;;;;30.35;15.52;;;5.80;99.90;;;;;;5140501;27;20159;-68
2022/12/03 02:52:43;;;;;;;28.65;13.55;;;5.70;99.90;;;;;;5139789;27;20050;-69
2022/12/03 02:55:11;;;;;;;32.22;15.18;;;5.70;99.90;;;;;;5136823;27;20027;-70
2022/12/03 02:57:38;;;;;;;29.30;15.02;;;5.60;99.90;;;;;;5119936;28;20374;-69
2022/12/03 03:00:06;;;;;;;31.73;15.32;;;5.60;99.90;;;;;;5119626;28;20332;-68
2022/12/03 03:02:33;;;;;;;30.02;15.00;;;5.60;99.90;;;;;;5119605;28;20053;-69
2022/12/03 03:04:59;;;;;;;30.52;14.23;;;5.60;99.90;;;;;;5119426;28;20047;-69
2022/12/03 03:07:25;;;;;;;28.15;14.88;;;5.60;99.90;;;;;;5119774;28;20119;-68
2022/12/03 03:09:51;;;;;;;32.20;14.32;;;5.60;99.90;;;;;;5084534;28;20131;-69
2022/12/03 03:12:16;;;;;;;30.52;14.27;;;5.60;99.90;;;;;;5118227;28;20088;-69
2022/12/03 03:14:42;;;;;;;29.33;14.90;;;5.50;99.90;;;;;;5119455;28;20093;-69
2022/12/03 03:17:07;;;;;;;26.50;13.00;;;5.50;99.90;;;;;;5119311;28;20031;-69
2022/12/03 03:19:33;;;;;;;30.10;14.85;;;5.40;99.90;;;;;;5119037;28;20083;-69
2022/12/03 03:21:59;;;;;;;31.80;13.57;;;5.20;99.90;;;;;;5118742;28;20039;-69
2022/12/03 03:24:25;;;;;;;27.05;13.30;;;5.30;99.90;;;;;;5101341;28;20071;-69
2022/12/03 03:26:51;;;;;;;31.38;15.07;;;5.40;99.90;;;;;;5118942;28;20040;-68
2022/12/03 03:29:18;;;;;;;30.83;14.13;;;5.30;99.90;;;;;;5119385;28;20114;-69
2022/12/03 03:31:45;;;;;;;28.98;13.93;;;5.40;99.90;;;;;;5118434;28;20047;-68
2022/12/03 03:34:11;;;;;;;32.58;14.93;;;5.50;99.90;;;;;;5118152;28;20058;-69
2022/12/03 03:36:38;;;;;;;27.80;13.50;;;5.40;99.90;;;;;;5119235;28;20035;-69
2022/12/03 03:39:04;;;;;;;31.08;14.45;;;5.30;99.90;;;;;;5119057;28;20370;-69
2022/12/03 03:41:46;;;;;;;31.08;14.70;;;5.40;99.90;;;;;;5063382;28;20661;-68
2022/12/03 03:44:12;;;;;;;31.83;13.90;;;5.40;99.90;;;;;;5118661;28;20471;-68
2022/12/03 03:46:39;;;;;;;31.27;14.43;;;5.40;99.90;;;;;;5118713;28;20039;-69
2022/12/03 03:49:05;;;;;;;31.42;14.65;;;5.50;99.90;;;;;;5118880;28;20124;-68
2022/12/03 03:51:34;;;;;;;29.80;13.88;;;5.40;99.90;;;;;;5118364;28;20251;-69
2022/12/03 03:54:00;;;;;;;30.83;14.88;;;5.50;99.90;;;;;;5118771;28;20039;-69
2022/12/03 03:56:26;;;;;;;28.17;13.70;;;5.60;99.90;;;;;;5118449;28;20036;-69
2022/12/03 03:58:53;;;;;;;28.17;13.90;;;5.60;99.90;;;;;;5118593;28;20066;-69
2022/12/03 04:01:19;;;;;;;35.20;14.70;;;5.70;99.90;;;;;;5117226;28;20451;-69
2022/12/03 04:03:44;;;;;;;31.20;14.60;;;5.80;99.90;;;;;;5118360;28;20036;-68
2022/12/03 04:06:10;;;;;;;30.40;13.30;;;5.60;99.90;;;;;;5118394;28;20122;-69
2022/12/03 04:08:36;;;;;;;29.10;14.02;;;5.40;99.90;;;;;;5118581;28;20036;-69
2022/12/03 04:13:45;;;;;;;32.22;15.18;;;5.30;99.90;;;;;;5118289;28;20337;-69
2022/12/03 04:16:11;;;;;;;34.28;15.15;;;5.30;99.90;;;;;;5117159;28;20036;-69
2022/12/03 04:18:43;;;;;;;31.58;13.85;;;5.30;99.90;;;;;;5118037;28;20076;-69
2022/12/03 04:24:00;;;;;;;30.30;14.32;;;5.20;99.90;;;;;;5118478;28;20051;-68
2022/12/03 04:29:10;;;;;;;27.52;13.75;;;5.30;99.90;;;;;;5116963;28;20042;-69
2022/12/03 04:37:05;;;;;;;29.70;13.95;;;5.20;99.90;;;;;;5117551;28;20451;-68
2022/12/03 04:39:30;;;;;;;30.40;13.68;;;5.10;99.90;;;;;;5117646;28;20075;-69
2022/12/03 04:41:56;;;;;;;26.83;13.60;;;5.20;99.90;;;;;;5125119;27;20059;-69
2022/12/03 04:44:37;;;;;;;30.70;14.68;;;5.40;99.90;;;;;;5137314;27;20046;-69
2022/12/03 04:47:14;;;;;;;30.45;14.05;;;5.30;99.90;;;;;;5138357;27;20079;-69
2022/12/03 04:49:45;;;;;;;30.85;14.57;;;5.30;99.90;;;;;;5119784;27;20046;-69
2022/12/03 04:52:12;;;;;;;32.22;14.15;;;5.30;99.90;;;;;;5119798;27;20285;-69
2022/12/03 04:54:39;;;;;;;31.83;14.25;;;5.20;99.90;;;;;;5137935;27;20123;-69
2022/12/03 04:57:05;;;;;;;30.75;14.25;;;5.20;99.90;;;;;;5138155;27;20039;-69
2022/12/03 04:59:31;;;;;;;31.10;13.73;;;5.10;99.90;;;;;;5138250;27;20084;-68
2022/12/03 05:01:57;;;;;;;32.25;15.57;;;5.10;99.90;;;;;;5137848;27;20039;-68
2022/12/03 05:04:23;;;;;;;27.38;14.20;;;5.00;99.90;;;;;;5138155;27;20043;-69
2022/12/03 05:06:49;;;;;;;32.78;15.95;;;4.90;99.90;;;;;;5102550;27;20101;-69
2022/12/03 05:09:15;;;;;;;33.33;15.02;;;5.00;99.90;;;;;;5119810;27;20077;-69
2022/12/03 05:11:41;;;;;;;32.50;15.10;;;5.00;99.90;;;;;;5137869;27;20078;-69
2022/12/03 05:14:08;;;;;;;32.47;14.73;;;5.10;99.90;;;;;;5137729;27;20428;-69
2022/12/03 05:16:34;;;;;;;34.42;15.30;;;5.20;99.90;;;;;;5137515;27;20035;-69
2022/12/03 05:19:00;;;;;;;31.50;14.63;;;5.30;99.90;;;;;;5137724;27;20043;-69
2022/12/03 05:21:26;;;;;;;38.88;14.77;;;5.20;99.90;;;;;;5137111;27;20039;-69
2022/12/03 05:23:52;;;;;;;32.35;14.65;;;5.20;99.90;;;;;;5137551;27;20054;-68
2022/12/03 05:26:17;;;;;;;34.70;16.10;;;5.30;99.90;;;;;;5137870;27;20027;-69
2022/12/03 05:28:43;;;;;;;33.50;14.77;;;5.30;99.90;;;;;;5137671;27;20039;-69
2022/12/03 05:31:09;;;;;;;32.20;14.18;;;5.40;99.90;;;;;;5137331;27;20047;-69
2022/12/03 05:33:34;;;;;;;32.25;13.50;;;5.20;99.90;;;;;;5137564;27;20046;-69
2022/12/03 05:36:00;;;;;;;33.42;14.00;;;5.20;99.90;;;;;;5137671;28;20057;-68
2022/12/03 05:38:26;;;;;;;37.30;15.90;;;5.10;99.90;;;;;;5137459;28;20058;-68
2022/12/03 05:40:51;;;;;;;30.85;14.57;;;4.90;99.90;;;;;;5119327;28;20051;-68
2022/12/03 05:43:17;;;;;;;35.25;14.88;;;4.80;99.90;;;;;;5137201;28;20425;-68
2022/12/03 05:45:43;;;;;;;36.90;14.57;;;4.80;99.90;;;;;;5137213;28;20313;-69
2022/12/03 05:48:12;;;;;;;30.65;14.27;;;4.80;99.90;;;;;;5137529;28;20039;-68
2022/12/03 05:50:42;;;;;;;34.97;14.63;;;4.80;99.90;;;;;;5137259;28;20126;-68
2022/12/03 05:53:07;;;;;;;35.00;15.48;;;4.90;99.90;;;;;;5118975;28;20324;-69
2022/12/03 05:55:33;;;;;;;36.20;16.08;;;4.90;99.90;;;;;;5139172;27;20099;-69
2022/12/03 05:57:58;;;;;;;36.90;15.88;;;4.70;99.90;;;;;;5141451;27;20067;-68
2022/12/03 06:00:30;;;;;;;33.85;14.52;;;4.80;99.90;;;;;;5141155;27;20359;-68
2022/12/03 06:02:56;;;;;;;33.80;15.00;;;4.80;99.90;;;;;;5141674;27;20067;-69
2022/12/03 06:05:22;;;;;;;35.67;14.90;;;4.90;99.90;;;;;;5141531;27;20101;-68
2022/12/03 06:07:50;;;;;;;35.03;14.88;;;5.00;99.90;;;;;;5141386;27;20039;-69
2022/12/03 06:10:21;;;;;;;34.30;15.00;;;5.10;99.90;;;;;;5141213;27;20416;-68
2022/12/03 06:12:47;;;;;;;32.50;13.98;;;5.00;99.90;;;;;;5122757;27;20039;-69
2022/12/03 06:15:13;;;;;;;31.67;14.32;;;5.00;99.90;;;;;;5141416;27;20105;-69
2022/12/03 06:17:39;;;;;;;37.67;16.45;;;5.00;99.90;;;;;;5141208;27;20031;-69
2022/12/03 06:20:06;;;;;;;32.67;15.50;;;5.20;99.90;;;;;;5123151;27;20046;-68
2022/12/03 06:22:31;;;;;;;32.20;15.15;;;5.10;99.90;;;;;;5122256;27;20047;-68
2022/12/03 06:24:57;;;;;;;36.03;15.40;;;5.10;99.90;;;;;;5140960;27;20115;-68
2022/12/03 06:27:23;;;;;;;34.30;14.65;;;5.10;99.90;;;;;;5140643;27;20082;-69
2022/12/03 06:29:49;;;;;;;33.42;15.27;;;5.10;99.90;;;;;;5122953;27;20064;-68
2022/12/03 06:32:14;;;;;;;32.22;14.70;;;5.20;99.90;;;;;;5140709;27;20131;-69
2022/12/03 06:34:40;;;;;;;35.58;15.73;;;5.20;99.90;;;;;;5140855;27;20035;-69
2022/12/03 06:37:05;;;;;;;38.95;17.15;;;5.40;99.90;;;;;;5140972;27;20054;-69
2022/12/03 06:39:31;;;;;;;35.95;15.93;;;5.40;99.90;;;;;;5140808;27;20443;-69
2022/12/03 06:41:57;;;;;;;32.72;14.95;;;5.40;99.90;;;;;;5140299;27;20039;-69
2022/12/03 06:44:23;;;;;;;36.80;15.75;;;5.40;99.90;;;;;;5122551;27;20099;-69
2022/12/03 06:46:48;;;;;;;33.25;14.07;;;5.40;99.90;;;;;;5140776;27;20047;-69
2022/12/03 06:49:14;;;;;;;36.25;15.95;;;5.20;99.90;;;;;;5122611;27;20047;-69
2022/12/03 06:51:40;;;;;;;37.92;15.13;;;5.20;99.90;;;;;;5140173;27;20035;-69
2022/12/03 06:54:05;;;;;;;33.92;14.77;;;5.20;99.90;;;;;;5140329;27;20459;-68
2022/12/03 06:56:31;;;;;;;36.67;15.63;;;5.20;99.90;;;;;;5140451;27;20031;-69
2022/12/03 06:58:57;;;;;;;32.60;14.52;;;5.20;99.90;;;;;;5140277;27;20092;-68
2022/12/03 07:01:23;;;;;;;29.52;13.80;;;5.10;99.90;;;;;;5140354;27;20096;-69
2022/12/03 07:03:48;;;;;;;34.60;14.82;;;5.20;99.90;;;;;;5122165;27;20039;-68
2022/12/03 07:06:14;;;;;;;34.13;14.75;;;5.20;99.90;;;;;;5139718;27;20122;-68
2022/12/03 07:08:40;;;;;;;37.92;15.18;;;5.10;99.90;;;;;;5139699;27;20043;-68
2022/12/03 07:13:50;;;;;;;34.15;14.30;;;5.00;99.90;;;;;;5140106;27;20054;-68
2022/12/03 07:16:15;;;;;;;34.17;14.32;;;4.90;99.90;;;;;;5140217;27;20039;-68
2022/12/03 07:18:41;;;;;;;31.55;14.45;;;4.80;99.90;;;;;;5139969;27;20041;-69
2022/12/03 07:21:06;;;;;;;31.33;14.90;;;4.70;99.90;;;;;;5139689;27;20043;-69
2022/12/03 07:23:32;;;;;;;30.90;13.95;;;4.90;99.90;;;;;;5139299;27;20035;-68
2022/12/03 07:25:58;;;;;;;35.97;15.68;;;4.90;99.90;;;;;;5139760;27;20446;-68
2022/12/03 07:28:23;;;;;;;29.98;13.57;;;4.90;99.90;;;;;;5139911;27;20039;-68
2022/12/03 07:30:49;;;;;;;37.97;16.20;;;5.00;99.90;;;;;;5139442;27;20235;-69
2022/12/03 07:33:15;;;;;;;33.40;14.93;;;5.00;99.90;;;;;;5139558;27;20425;-69
2022/12/03 07:35:40;;;;;;;35.13;15.43;;;5.00;99.90;;;;;;5121556;27;20043;-68
2022/12/03 07:38:06;;;;;;;33.58;15.05;;;5.20;99.90;;;;;;5139553;27;20042;-68
2022/12/03 07:40:31;;;;;;;33.58;14.55;;;5.10;99.90;;;;;;5120987;27;20341;-68
2022/12/03 07:42:57;;;;;;;35.35;14.73;;;5.00;99.90;;;;;;5139018;27;20055;-68
2022/12/03 07:45:23;;;;;;;36.60;15.15;;;4.90;99.90;;;;;;5139510;27;20039;-68
2022/12/03 07:47:48;;;;;;;33.53;14.57;;;4.90;99.90;;;;;;5121172;27;20046;-68
2022/12/03 07:50:14;;;;;;;32.20;14.05;;;4.80;99.90;;;;;;5139224;27;20047;-68
2022/12/03 07:52:40;;;;;;;33.22;14.77;;;4.80;99.90;;;;;;5138533;27;20327;-72
2022/12/03 07:55:06;;;;;;;33.78;14.45;;;4.80;99.90;;;;;;5138748;27;20031;-68
2022/12/03 07:57:31;;;;;;;35.53;14.88;;;4.70;99.90;;;;;;5139085;27;20077;-68
2022/12/03 07:59:57;;;;;;;36.63;14.80;;;4.80;99.90;;;;;;5119812;27;20392;-68
2022/12/03 08:02:22;;;;;;;32.63;13.98;;;4.80;99.90;;;;;;5120936;27;20031;-68
2022/12/03 08:04:48;;;;;;;35.40;15.38;;;4.60;99.90;;;;;;5121178;27;20039;-69
2022/12/03 08:07:14;;;;;;;34.97;14.18;;;4.60;99.90;;;;;;5098979;28;20035;-68
2022/12/03 08:09:40;;;;;;;34.90;14.48;;;4.60;99.90;;;;;;5115955;27;20039;-72
2022/12/03 08:12:15;;;;;;;34.08;14.30;;;4.60;99.90;;;;;;5138832;27;20058;-68
2022/12/03 08:14:41;;;;;;;31.67;14.63;;;4.50;99.90;;;;;;5120635;27;20460;-69
2022/12/03 08:17:13;;;;;;;32.10;14.57;;;4.60;99.90;;;;;;5121012;27;20088;-68
2022/12/03 08:19:42;;;;;;;33.33;14.70;;;4.40;99.90;;;;;;5138625;27;20037;-68
2022/12/03 08:22:13;;;;;;;33.80;15.07;;;4.40;99.90;;;;;;5138097;27;20223;-69
2022/12/03 08:24:38;;;;;;;33.92;13.85;;;4.40;99.90;;;;;;5138391;27;20043;-69
2022/12/03 08:27:17;;;;;;;37.58;14.65;;;4.50;99.90;;;;;;5137884;27;20035;-68
2022/12/03 08:29:43;;;;;;;35.13;15.05;;;4.50;99.90;;;;;;5138524;27;20042;-68
2022/12/03 08:32:10;;;;;;;32.15;13.27;;;4.40;99.90;;;;;;5138334;27;20046;-69
2022/12/03 08:34:45;;;;;;;32.85;15.02;;;4.50;99.90;;;;;;5137653;27;20035;-69
2022/12/03 08:37:20;;;;;;;32.50;14.55;;;4.50;99.90;;;;;;5138341;27;20131;-68
2022/12/03 08:39:53;;;;;;;31.33;13.50;;;4.50;99.90;;;;;;5138610;27;20038;-69
2022/12/03 08:42:43;;;;;;;36.33;14.80;;;4.30;99.90;;;;;;5138122;27;20404;-68
2022/12/03 08:45:23;;;;;;;38.03;14.68;;;4.40;99.90;;;;;;5138157;27;20183;-72
2022/12/03 08:47:49;;;;;;;33.03;13.73;;;4.40;99.90;;;;;;5120055;27;20049;-67
2022/12/03 08:50:38;;;;;;;38.85;15.05;;;4.40;99.90;;;;;;5138063;27;20043;-67
2022/12/03 08:53:13;;;;;;;37.22;15.13;;;4.50;99.90;;;;;;5099495;28;20031;-69
2022/12/03 08:55:51;;;;;;;35.97;14.95;;;4.60;99.90;;;;;;5117848;28;20332;-69
2022/12/03 08:58:23;;;;;;;39.30;15.00;;;4.70;99.90;;;;;;5117631;28;20301;-69
2022/12/03 09:00:56;;;;;;;36.97;13.98;;;4.60;99.90;;;;;;5117599;28;20044;-69
2022/12/03 09:03:23;;;;;;;34.97;15.10;;;4.50;99.90;;;;;;5117332;28;20071;-69
2022/12/03 09:05:49;;;;;;;37.80;14.02;;;4.40;99.90;;;;;;5123546;27;20327;-69
2022/12/03 09:08:14;;;;;;;34.78;14.75;;;4.40;99.80;;;;;;5137256;27;20046;-69
2022/12/03 09:10:40;;;;;;;42.47;15.63;;;4.30;99.80;;;;;;5102465;27;20130;-69
2022/12/03 09:13:05;;;;;;;38.15;15.65;;;4.30;99.90;;;;;;5137758;27;20031;-68
2022/12/03 09:15:31;;;;;;;42.50;16.17;;;4.40;99.90;;;;;;5102541;27;20046;-69
2022/12/03 09:17:57;;;;;;;35.63;15.25;;;4.40;99.80;;;;;;5119871;27;20035;-68
2022/12/03 09:20:22;;;;;;;38.97;15.88;;;4.30;99.90;;;;;;5137816;27;20078;-69
2022/12/03 09:22:48;;;;;;;40.67;15.18;;;4.30;99.90;;;;;;5137400;27;20452;-69
2022/12/03 09:25:14;;;;;;;39.60;16.17;;;4.30;99.90;;;;;;5119289;27;20039;-69
2022/12/03 09:27:40;;;;;;;33.78;14.93;;;4.30;99.80;;;;;;5102633;28;20416;-68
2022/12/03 09:30:07;;;;;;;37.47;16.55;;;4.30;99.90;;;;;;5136974;27;20100;-68
2022/12/03 09:32:33;;;;;;;39.15;15.77;;;4.30;99.80;;;;;;5102487;27;20043;-68
2022/12/03 09:34:59;;;;;;;38.03;15.80;;;4.30;99.90;;;;;;5119441;28;20028;-71
2022/12/03 09:37:24;;;;;;;37.00;15.40;;;4.40;99.80;;;;;;5137186;28;20035;-68
2022/12/03 09:39:50;;;;;;;34.22;15.38;;;4.40;99.80;;;;;;5137063;28;20092;-69
2022/12/03 09:42:19;;;;;;;38.88;16.48;;;4.50;99.70;;;;;;5099207;28;20335;-68
2022/12/03 09:44:45;;;;;;;39.50;17.17;;;4.40;99.60;;;;;;5117057;28;20032;-67
2022/12/03 09:47:14;;;;;;;35.65;14.85;;;4.50;99.70;;;;;;5116695;28;20336;-68
2022/12/03 09:49:40;;;;;;;39.30;16.50;;;4.50;99.60;;;;;;5116888;28;20038;-68
2022/12/03 09:52:07;;;;;;;40.28;16.27;;;4.60;99.70;;;;;;5115260;28;20043;-68
2022/12/03 09:54:33;;;;;;;36.20;16.38;;;4.60;99.30;;;;;;5116883;28;20027;-67
2022/12/03 09:57:01;;;;;;;37.38;16.05;;;4.50;99.10;;;;;;5115606;28;20467;-68
2022/12/03 09:59:32;;;;;;;38.40;15.93;;;4.30;99.10;;;;;;5113977;28;20042;-68
2022/12/03 10:01:58;;;;;;;36.85;15.35;;;4.10;99.10;;;;;;5105138;28;20074;-68
2022/12/03 10:04:23;;;;;;;34.92;14.60;;;4.30;99.30;;;;;;5115898;28;20455;-68
2022/12/03 10:06:50;;;;;;;35.92;15.23;;;4.30;99.20;;;;;;5114231;28;20119;-69
2022/12/03 10:09:22;;;;;;;43.30;16.73;;;4.30;99.30;;;;;;5116386;28;20039;-68
2022/12/03 10:11:48;;;;;;;38.28;15.20;;;4.30;99.40;;;;;;5116069;28;20405;-71
2022/12/03 10:14:16;;;;;;;36.25;15.02;;;4.40;99.30;;;;;;5115421;28;20036;-70
2022/12/03 10:16:42;;;;;;;37.78;16.42;;;4.40;99.30;;;;;;5110347;28;20115;-71
2022/12/03 10:19:19;;;;;;;38.58;15.48;;;4.40;99.30;;;;;;5105785;28;20048;-70
2022/12/03 10:21:45;;;;;;;38.70;15.65;;;4.60;99.30;;;;;;5095535;28;20132;-75
2022/12/03 10:24:30;;;;;;;36.55;15.02;;;4.60;99.20;;;;;;5111309;28;20127;-70
2022/12/03 10:27:00;;;;;;;34.67;14.90;;;4.60;99.10;;;;;;5114758;28;20448;-70
2022/12/03 10:29:28;;;;;;;38.47;15.75;;;4.70;99.10;;;;;;5101212;28;20173;-69
2022/12/03 10:31:57;;;;;;;41.80;16.42;;;4.60;98.90;;;;;;5114742;28;20447;-71
2022/12/03 10:34:31;;;;;;;38.80;16.67;;;4.50;99.00;;;;;;5114526;28;20032;-71
2022/12/03 10:37:10;;;;;;;37.65;15.43;;;4.40;99.10;;;;;;5099845;28;20039;-70
2022/12/03 10:39:57;;;;;;;42.97;17.00;;;4.40;99.00;;;;;;5112066;28;20024;-70
2022/12/03 10:42:31;;;;;;;43.35;16.77;;;4.40;99.00;;;;;;5121642;27;20062;-71
2022/12/03 10:45:22;;;;;;;38.20;15.43;;;4.40;99.10;;;;;;5152423;27;20129;-71
2022/12/03 10:48:18;;;;;;;40.30;15.73;;;4.50;99.00;;;;;;5146327;27;20157;-70
2022/12/03 10:51:09;;;;;;;41.15;15.48;;;4.40;99.00;;;;;;5125594;27;20184;-70
2022/12/03 10:53:37;;;;;;;37.95;15.48;;;4.50;99.00;;;;;;5121014;27;20066;-70
2022/12/03 10:56:06;;;;;;;42.22;16.40;;;4.50;99.00;;;;;;5136636;27;20035;-68
2022/12/03 10:58:37;;;;;;;35.58;15.77;;;4.50;99.10;;;;;;5129245;27;20082;-68
2022/12/03 11:01:14;;;;;;;40.58;16.55;;;4.60;98.90;;;;;;5139465;27;20047;-68
2022/12/03 11:03:40;;;;;;;40.40;16.45;;;4.50;98.70;;;;;;5120590;27;20031;-69
2022/12/03 11:06:08;;;;;;;39.97;16.10;;;4.50;98.90;;;;;;5140354;27;20046;-69
2022/12/03 11:08:35;;;;;;;42.60;16.10;;;4.40;98.80;;;;;;5140299;27;20049;-69
2022/12/03 11:11:06;;;;;;;39.13;15.82;;;4.30;98.80;;;;;;5104804;27;20039;-72
2022/12/03 11:13:32;;;;;;;40.15;15.20;;;4.20;98.80;;;;;;5140357;27;20135;-69
2022/12/03 11:16:02;;;;;;;38.80;15.82;;;4.20;98.90;;;;;;5140019;27;20039;-68
2022/12/03 11:18:37;;;;;;;37.92;15.98;;;4.30;99.00;;;;;;5140060;27;20038;-69
2022/12/03 11:21:05;;;;;;;42.67;16.52;;;4.30;98.80;;;;;;5139965;27;20042;-69
2022/12/03 11:23:46;;;;;;;39.05;14.85;;;4.30;98.90;;;;;;5139602;27;20118;-69
2022/12/03 11:26:12;;;;;;;44.22;16.00;;;4.40;98.90;;;;;;5121705;27;20053;-68
2022/12/03 11:28:58;;;;;;;38.53;16.25;;;4.40;98.70;;;;;;5139722;27;20031;-70
2022/12/03 11:31:45;;;;;;;38.60;16.27;;;4.30;98.70;;;;;;5139477;27;20130;-68
2022/12/03 11:34:17;;;;;;;39.67;15.93;;;4.40;99.00;;;;;;5139674;27;20304;-68
2022/12/03 11:37:10;;;;;;;38.38;15.05;;;4.50;98.90;;;;;;5117952;27;21466;-70
2022/12/03 11:39:48;;;;;;;41.50;15.57;;;4.50;98.80;;;;;;5120836;27;20039;-68
2022/12/03 11:42:26;;;;;;;39.25;15.85;;;4.50;98.60;;;;;;5121127;27;20090;-68
2022/12/03 11:45:09;;;;;;;40.78;15.98;;;4.60;98.80;;;;;;5118547;28;20428;-68
2022/12/03 11:47:58;;;;;;;40.38;15.88;;;4.80;98.70;;;;;;5130247;27;20050;-68
2022/12/03 11:50:26;;;;;;;41.22;16.65;;;4.80;98.70;;;;;;5102566;28;20160;-69
2022/12/03 11:52:57;;;;;;;40.90;16.70;;;4.70;98.50;;;;;;5117508;28;20035;-68
2022/12/03 11:55:39;;;;;;;42.05;15.48;;;4.70;98.60;;;;;;5118860;28;20336;-73
2022/12/03 11:58:24;;;;;;;42.38;16.08;;;4.70;98.60;;;;;;5100335;28;20043;-68
2022/12/03 12:00:52;;;;;;;36.70;15.60;;;4.80;98.70;;;;;;5134718;27;20037;-68
2022/12/03 12:03:27;;;;;;;42.47;17.48;;;4.80;98.70;;;;;;5138491;27;20051;-69
2022/12/03 12:06:07;;;;;;;43.58;16.52;;;5.10;98.60;;;;;;5122692;27;20039;-68
2022/12/03 12:08:36;;;;;;;38.55;16.23;;;5.20;98.70;;;;;;5117296;28;20436;-68
2022/12/03 12:11:02;;;;;;;39.88;17.10;;;5.20;98.40;;;;;;5118198;28;20083;-68
2022/12/03 12:13:31;;;;;;;39.33;15.65;;;5.10;98.30;;;;;;5118386;28;20320;-68
2022/12/03 12:15:58;;;;;;;39.85;15.25;;;5.00;98.40;;;;;;5117876;28;20054;-68
2022/12/03 12:18:43;;;;;;;36.78;15.60;;;5.00;98.30;;;;;;5106740;27;20037;-68
2022/12/03 12:21:37;;;;;;;38.22;15.55;;;4.90;98.30;;;;;;5132758;27;20043;-69
2022/12/03 12:24:45;;;;;;;39.10;15.90;;;4.80;98.30;;;;;;5119202;27;20039;-70
2022/12/03 12:27:12;;;;;;;38.67;15.98;;;4.70;98.20;;;;;;5123003;27;20070;-69
2022/12/03 12:29:39;;;;;;;36.95;15.10;;;4.60;98.20;;;;;;5134640;27;20431;-69
2022/12/03 12:32:08;;;;;;;45.65;17.42;;;4.50;98.50;;;;;;5119507;27;20043;-70
2022/12/03 12:34:36;;;;;;;41.80;16.80;;;4.50;98.30;;;;;;5119611;27;20312;-69
2022/12/03 12:37:05;;;;;;;39.30;15.65;;;4.50;98.50;;;;;;5119210;27;20081;-69
2022/12/03 12:39:30;;;;;;;40.80;16.05;;;4.60;98.60;;;;;;5138461;27;20092;-69
2022/12/03 12:41:57;;;;;;;40.03;15.95;;;4.70;98.60;;;;;;5133944;27;20443;-70
2022/12/03 12:44:25;;;;;;;40.15;15.50;;;4.60;98.30;;;;;;5101058;27;20050;-69
2022/12/03 12:46:52;;;;;;;38.75;15.52;;;4.50;98.40;;;;;;5137376;27;20397;-68
2022/12/03 12:49:23;;;;;;;40.85;16.30;;;4.50;98.50;;;;;;5127587;27;20108;-68
2022/12/03 12:51:49;;;;;;;42.00;16.50;;;4.40;98.50;;;;;;5114255;27;20110;-69
2022/12/03 12:54:17;;;;;;;38.38;15.90;;;4.40;98.50;;;;;;5134109;27;20127;-72
2022/12/03 12:56:45;;;;;;;36.95;14.27;;;4.40;98.50;;;;;;5130120;27;20023;-69
2022/12/03 12:59:23;;;;;;;40.15;16.55;;;4.40;98.30;;;;;;5098284;28;20336;-69
2022/12/03 13:01:54;;;;;;;32.50;12.85;;;4.40;98.40;;;;;;5116590;27;20066;-71